Terminal Aerodrome Forecast
Issued by NWS

Home | Current Version | Previous Version | Text Only | Print | Product List | Glossary On
Versions: 1 2 3 4 5 6 7 8 9 10 11 12 13 14 15 16 17 18 19 20 21 22 23 24 25 26 27 28 29 30
000
FTAK31 PANC 140904 AAA
TAFAEN
TAF AMD
PAEN 140904Z 1409/1506 VRB04KT P6SM SCT020 SCT060
      TEMPO 1409/1412 BKN020
     FM142200 22008KT P6SM BKN060=

USA.gov is the U.S. government's official web portal to all federal, state and local government web resources and services.